Time;durP1;ratioP1;P1;durP2;ratioP2;P2;SDS_P1;SDS_P2;PMS_P1;PMS_P2;Temp;Humidity;BMP_temperature;BMP_pressure;BME280_temperature;BME280_humidity;BME280_pressure;Samples;Min_cycle;Max_cycle;Signal;HPM_P1;HPM_P2
2023/04/13 00:00:28;;;;;;;;;;;;;;;;;;5071669;28;19908;-62
2023/04/13 00:02:54;;;;;;;;;;;;;;;;;;5078913;28;19916;-62
2023/04/13 00:05:20;;;;;;;;;;;;;;;;;;5092054;28;19909;-62
2023/04/13 00:07:47;;;;;;;;;;;;;;;;;;5072212;28;19917;-62
2023/04/13 00:10:14;;;;;;;;;;;;;;;;;;5071716;28;19996;-62
2023/04/13 00:12:41;;;;;;;;;;;;;;;;;;5072077;28;20364;-62
2023/04/13 00:15:07;;;;;;;;;;;;;;;;;;5071028;28;20553;-63
2023/04/13 00:17:33;;;;;;;;;;;;;;;;;;5089150;28;19948;-61
2023/04/13 00:19:59;;;;;;;;;;;;;;;;;;5091913;28;19916;-62
2023/04/13 00:22:25;;;;;;;;;;;;;;;;;;5092304;28;19929;-62
2023/04/13 00:24:54;;;;;;;;;;;;;;;;;;5092139;28;20037;-62
2023/04/13 00:27:20;;;;;;;;;;;;;;;;;;5093887;28;19944;-62
2023/04/13 00:29:46;;;;;;;;;;;;;;;;;;5095357;28;20438;-62
2023/04/13 00:32:12;;;;;;;;;;;;;;;;;;5088249;28;20011;-62
2023/04/13 00:34:38;;;;;;;;;;;;;;;;;;5095989;28;19908;-62
2023/04/13 00:37:05;;;;;;;;;;;;;;;;;;5094683;28;19963;-62
2023/04/13 00:39:31;;;;;;;;;;;;;;;;;;5085901;28;19912;-63
2023/04/13 00:41:57;;;;;;;;;;;;;;;;;;5082260;28;19956;-62
2023/04/13 00:44:23;;;;;;;;;;;;;;;;;;5092633;28;19998;-62
2023/04/13 00:46:49;;;;;;;;;;;;;;;;;;5094676;28;20417;-62
2023/04/13 00:49:15;;;;;;;;;;;;;;;;;;5095698;28;19916;-62
2023/04/13 00:51:43;;;;;;;;;;;;;;;;;;5094596;28;19916;-62
2023/04/13 00:54:09;;;;;;;;;;;;;;;;;;5095545;28;19908;-62
2023/04/13 00:56:36;;;;;;;;;;;;;;;;;;5095321;28;19955;-62
2023/04/13 00:59:02;;;;;;;;;;;;;;;;;;5094271;28;19920;-62
2023/04/13 01:01:29;;;;;;;;;;;;;;;;;;5094067;28;19923;-62
2023/04/13 01:03:55;;;;;;;;;;;;;;;;;;5095207;28;19915;-62
2023/04/13 01:06:21;;;;;;;;;;;;;;;;;;5095459;28;20317;-62
2023/04/13 01:08:47;;;;;;;;;;;;;;;;;;5095240;28;20000;-63
2023/04/13 01:11:14;;;;;;;;;;;;;;;;;;5094509;28;20015;-62
2023/04/13 01:13:40;;;;;;;;;;;;;;;;;;5093470;28;19916;-62
2023/04/13 01:16:05;;;;;;;;;;;;;;;;;;5094970;28;19966;-63
2023/04/13 01:18:32;;;;;;;;;;;;;;;;;;5093495;28;19968;-62
2023/04/13 01:20:58;;;;;;;;;;;;;;;;;;5094601;28;19978;-62
2023/04/13 01:23:24;;;;;;;;;;;;;;;;;;5093646;28;19916;-62
2023/04/13 01:25:50;;;;;;;;;;;;;;;;;;5094665;28;20368;-62
2023/04/13 01:28:16;;;;;;;;;;;;;;;;;;5093213;28;20000;-62
2023/04/13 01:30:43;;;;;;;;;;;;;;;;;;5094380;28;19951;-62
2023/04/13 01:33:09;;;;;;;;;;;;;;;;;;5093641;28;19912;-62
2023/04/13 01:35:35;;;;;;;;;;;;;;;;;;5093318;28;19941;-62
2023/04/13 01:38:01;;;;;;;;;;;;;;;;;;5093543;28;19982;-62
2023/04/13 01:40:27;;;;;;;;;;;;;;;;;;5075923;28;19932;-62
2023/04/13 01:42:53;;;;;;;;;;;;;;;;;;5091213;28;19923;-63
2023/04/13 01:45:18;;;;;;;;;;;;;;;;;;5091217;28;19958;-63
2023/04/13 01:47:45;;;;;;;;;;;;;;;;;;5094178;28;20003;-62
2023/04/13 01:50:12;;;;;;;;;;;;;;;;;;5090840;28;19916;-63
2023/04/13 01:52:38;;;;;;;;;;;;;;;;;;5094506;28;20429;-63
2023/04/13 01:55:04;;;;;;;;;;;;;;;;;;5093305;28;19918;-62
2023/04/13 01:57:30;;;;;;;;;;;;;;;;;;5094443;28;20271;-62
2023/04/13 01:59:57;;;;;;;;;;;;;;;;;;5094039;28;19912;-62
2023/04/13 02:02:23;;;;;;;;;;;;;;;;;;5093996;28;19957;-62
2023/04/13 02:04:49;;;;;;;;;;;;;;;;;;5094206;28;19944;-62
2023/04/13 02:07:15;;;;;;;;;;;;;;;;;;5093105;28;19954;-63
2023/04/13 02:09:41;;;;;;;;;;;;;;;;;;5092674;28;19938;-62
2023/04/13 02:12:07;;;;;;;;;;;;;;;;;;5093729;28;20340;-63
2023/04/13 02:14:33;;;;;;;;;;;;;;;;;;5093272;28;19912;-63
2023/04/13 02:16:59;;;;;;;;;;;;;;;;;;5090769;28;19960;-62
2023/04/13 02:19:25;;;;;;;;;;;;;;;;;;5090899;28;19912;-62
2023/04/13 02:21:52;;;;;;;;;;;;;;;;;;5093379;28;19908;-62
2023/04/13 02:24:18;;;;;;;;;;;;;;;;;;5093610;28;19908;-62
2023/04/13 02:26:43;;;;;;;;;;;;;;;;;;5091735;28;20367;-63
2023/04/13 02:29:09;;;;;;;;;;;;;;;;;;5091615;28;20006;-62
2023/04/13 02:31:36;;;;;;;;;;;;;;;;;;5093478;28;20265;-63
2023/04/13 02:34:02;;;;;;;;;;;;;;;;;;5086751;28;20006;-63
2023/04/13 02:36:29;;;;;;;;;;;;;;;;;;5091452;28;21872;-63
2023/04/13 02:38:55;;;;;;;;;;;;;;;;;;5093269;28;20364;-62
2023/04/13 02:41:21;;;;;;;;;;;;;;;;;;5093102;28;19947;-62
2023/04/13 02:43:48;;;;;;;;;;;;;;;;;;5092578;28;19920;-62
2023/04/13 02:46:14;;;;;;;;;;;;;;;;;;5093436;28;19918;-62
2023/04/13 02:48:40;;;;;;;;;;;;;;;;;;5092217;28;20011;-62
2023/04/13 02:51:06;;;;;;;;;;;;;;;;;;5092897;28;19908;-62
2023/04/13 02:53:32;;;;;;;;;;;;;;;;;;5078128;28;19913;-62
2023/04/13 02:55:59;;;;;;;;;;;;;;;;;;5072923;28;19913;-62
2023/04/13 02:58:25;;;;;;;;;;;;;;;;;;5072956;28;20394;-62
2023/04/13 03:00:51;;;;;;;;;;;;;;;;;;5076410;28;20449;-63
2023/04/13 03:03:17;;;;;;;;;;;;;;;;;;5091937;28;19966;-62
2023/04/13 03:05:43;;;;;;;;;;;;;;;;;;5093130;28;19916;-62
2023/04/13 03:08:09;;;;;;;;;;;;;;;;;;5092770;28;19912;-62
2023/04/13 03:10:36;;;;;;;;;;;;;;;;;;5091093;28;19920;-63
2023/04/13 03:13:02;;;;;;;;;;;;;;;;;;5092262;28;19939;-62
2023/04/13 03:15:29;;;;;;;;;;;;;;;;;;5092118;28;19912;-62
2023/04/13 03:17:58;;;;;;;;;;;;;;;;;;5091848;28;19916;-63
2023/04/13 03:20:24;;;;;;;;;;;;;;;;;;5092220;28;19934;-62
2023/04/13 03:22:52;;;;;;;;;;;;;;;;;;5092325;28;20011;-62
2023/04/13 03:25:18;;;;;;;;;;;;;;;;;;5090468;28;19912;-63
2023/04/13 03:27:44;;;;;;;;;;;;;;;;;;5092694;28;20283;-62
2023/04/13 03:30:10;;;;;;;;;;;;;;;;;;5092327;28;19919;-62
2023/04/13 03:32:36;;;;;;;;;;;;;;;;;;5090105;28;20399;-63
2023/04/13 03:35:02;;;;;;;;;;;;;;;;;;5091534;28;19916;-63
2023/04/13 03:37:31;;;;;;;;;;;;;;;;;;5088821;28;19927;-63
2023/04/13 03:39:57;;;;;;;;;;;;;;;;;;5092408;28;19912;-63
2023/04/13 03:42:23;;;;;;;;;;;;;;;;;;5092507;28;19915;-63
2023/04/13 03:44:49;;;;;;;;;;;;;;;;;;5092546;28;20438;-63
2023/04/13 03:47:14;;;;;;;;;;;;;;;;;;5091329;28;19908;-62
2023/04/13 03:49:40;;;;;;;;;;;;;;;;;;5082827;28;20367;-63
2023/04/13 03:52:06;;;;;;;;;;;;;;;;;;5072129;28;19908;-62
2023/04/13 03:54:32;;;;;;;;;;;;;;;;;;5072230;28;19947;-63
2023/04/13 03:56:59;;;;;;;;;;;;;;;;;;5072066;28;20372;-62
2023/04/13 03:59:25;;;;;;;;;;;;;;;;;;5072303;28;20003;-62
2023/04/13 04:01:51;;;;;;;;;;;;;;;;;;5080536;28;20007;-62
2023/04/13 04:04:17;;;;;;;;;;;;;;;;;;5077148;28;20043;-62
2023/04/13 04:06:43;;;;;;;;;;;;;;;;;;5090424;28;19915;-63
2023/04/13 04:09:09;;;;;;;;;;;;;;;;;;5094399;28;19963;-63
2023/04/13 04:11:35;;;;;;;;;;;;;;;;;;5092095;28;20398;-62
2023/04/13 04:14:01;;;;;;;;;;;;;;;;;;5095189;28;19920;-63
2023/04/13 04:16:26;;;;;;;;;;;;;;;;;;5093212;28;20272;-63
2023/04/13 04:18:53;;;;;;;;;;;;;;;;;;5090849;28;19947;-62
2023/04/13 04:21:20;;;;;;;;;;;;;;;;;;5094358;28;20275;-63
2023/04/13 04:23:46;;;;;;;;;;;;;;;;;;5095515;28;19943;-62
2023/04/13 04:26:13;;;;;;;;;;;;;;;;;;5095279;28;19962;-62
2023/04/13 04:28:39;;;;;;;;;;;;;;;;;;5094712;28;19958;-62
2023/04/13 04:31:05;;;;;;;;;;;;;;;;;;5089416;28;19955;-62
2023/04/13 04:33:31;;;;;;;;;;;;;;;;;;5081170;28;20287;-63
2023/04/13 04:35:57;;;;;;;;;;;;;;;;;;5089100;28;19963;-62
2023/04/13 04:38:23;;;;;;;;;;;;;;;;;;5095212;28;20321;-62
2023/04/13 04:40:49;;;;;;;;;;;;;;;;;;5094756;28;19911;-63
2023/04/13 04:43:15;;;;;;;;;;;;;;;;;;5094072;28;20007;-63
2023/04/13 04:45:42;;;;;;;;;;;;;;;;;;5094884;28;20391;-63
2023/04/13 04:48:08;;;;;;;;;;;;;;;;;;5094406;28;19912;-62
2023/04/13 04:50:36;;;;;;;;;;;;;;;;;;5093052;28;19931;-62
2023/04/13 04:53:02;;;;;;;;;;;;;;;;;;5074683;28;20277;-62
2023/04/13 04:55:28;;;;;;;;;;;;;;;;;;5088453;28;19923;-62
2023/04/13 04:57:54;;;;;;;;;;;;;;;;;;5094692;28;19912;-62
2023/04/13 05:00:20;;;;;;;;;;;;;;;;;;5094321;28;20291;-63
2023/04/13 05:02:48;;;;;;;;;;;;;;;;;;5093351;28;19969;-62
2023/04/13 05:05:14;;;;;;;;;;;;;;;;;;5083522;28;20276;-63
2023/04/13 05:07:40;;;;;;;;;;;;;;;;;;5082886;28;19949;-63
2023/04/13 05:10:06;;;;;;;;;;;;;;;;;;5089215;28;19920;-62
2023/04/13 05:12:32;;;;;;;;;;;;;;;;;;5092791;28;20375;-63
2023/04/13 05:14:58;;;;;;;;;;;;;;;;;;5091921;28;20004;-62
2023/04/13 05:17:24;;;;;;;;;;;;;;;;;;5092173;28;19916;-63
2023/04/13 05:19:50;;;;;;;;;;;;;;;;;;5094017;28;19912;-63
2023/04/13 05:22:16;;;;;;;;;;;;;;;;;;5094058;28;19908;-63
2023/04/13 05:24:42;;;;;;;;;;;;;;;;;;5092309;28;19991;-63
2023/04/13 05:27:08;;;;;;;;;;;;;;;;;;5092895;28;19912;-63
2023/04/13 05:29:34;;;;;;;;;;;;;;;;;;5093975;28;19994;-63
2023/04/13 05:32:00;;;;;;;;;;;;;;;;;;5092590;28;19912;-62
2023/04/13 05:34:26;;;;;;;;;;;;;;;;;;5086071;28;19913;-63
2023/04/13 05:36:52;;;;;;;;;;;;;;;;;;5092375;28;19966;-63
2023/04/13 05:39:18;;;;;;;;;;;;;;;;;;5089120;28;20451;-63
2023/04/13 05:41:44;;;;;;;;;;;;;;;;;;5089956;28;20371;-63
2023/04/13 05:44:10;;;;;;;;;;;;;;;;;;5093818;28;19954;-62
2023/04/13 05:46:36;;;;;;;;;;;;;;;;;;5091937;28;19908;-62
2023/04/13 05:49:02;;;;;;;;;;;;;;;;;;5084446;28;20339;-63
2023/04/13 05:51:31;;;;;;;;;;;;;;;;;;5073072;28;20363;-62
2023/04/13 05:53:57;;;;;;;;;;;;;;;;;;5078237;28;19947;-63
2023/04/13 05:56:24;;;;;;;;;;;;;;;;;;5073409;28;19971;-63
2023/04/13 05:58:51;;;;;;;;;;;;;;;;;;5078662;28;19916;-62
2023/04/13 06:01:18;;;;;;;;;;;;;;;;;;5079277;28;19912;-62
2023/04/13 06:03:45;;;;;;;;;;;;;;;;;;5083052;28;20003;-62
2023/04/13 06:06:11;;;;;;;;;;;;;;;;;;5083605;28;19963;-63
2023/04/13 06:08:37;;;;;;;;;;;;;;;;;;5087975;28;19908;-63
2023/04/13 06:11:03;;;;;;;;;;;;;;;;;;5080458;28;19974;-63
2023/04/13 06:13:29;;;;;;;;;;;;;;;;;;5076811;28;19909;-62
2023/04/13 06:15:55;;;;;;;;;;;;;;;;;;5073355;28;19909;-62
2023/04/13 06:18:21;;;;;;;;;;;;;;;;;;5089776;28;19912;-62
2023/04/13 06:20:47;;;;;;;;;;;;;;;;;;5080252;28;19912;-62
2023/04/13 06:23:14;;;;;;;;;;;;;;;;;;5081864;28;19912;-63
2023/04/13 06:25:40;;;;;;;;;;;;;;;;;;5072306;28;20552;-63
2023/04/13 06:28:06;;;;;;;;;;;;;;;;;;5076800;28;19974;-62
2023/04/13 06:30:32;;;;;;;;;;;;;;;;;;5086085;28;19924;-62
2023/04/13 06:32:58;;;;;;;;;;;;;;;;;;5086047;28;20416;-63
2023/04/13 06:35:24;;;;;;;;;;;;;;;;;;5077392;28;20003;-62
2023/04/13 06:37:50;;;;;;;;;;;;;;;;;;5090394;28;19916;-63
2023/04/13 06:40:16;;;;;;;;;;;;;;;;;;5092200;28;19908;-63
2023/04/13 06:42:42;;;;;;;;;;;;;;;;;;5091974;28;20427;-62
2023/04/13 06:45:08;;;;;;;;;;;;;;;;;;5091343;28;19993;-63
2023/04/13 06:47:34;;;;;;;;;;;;;;;;;;5087646;28;19912;-63
2023/04/13 06:50:00;;;;;;;;;;;;;;;;;;5092163;28;19951;-62
2023/04/13 06:52:26;;;;;;;;;;;;;;;;;;5086708;28;19913;-63
2023/04/13 06:54:53;;;;;;;;;;;;;;;;;;5086126;28;20444;-62
2023/04/13 06:57:19;;;;;;;;;;;;;;;;;;5089672;28;19963;-63
2023/04/13 06:59:45;;;;;;;;;;;;;;;;;;5081225;28;19920;-62
2023/04/13 07:02:11;;;;;;;;;;;;;;;;;;5077046;28;19920;-62
2023/04/13 07:04:37;;;;;;;;;;;;;;;;;;5086830;28;20399;-63
2023/04/13 07:07:03;;;;;;;;;;;;;;;;;;5080111;28;20360;-62
2023/04/13 07:09:29;;;;;;;;;;;;;;;;;;5091351;28;19950;-63
2023/04/13 07:11:56;;;;;;;;;;;;;;;;;;5088265;28;19919;-62
2023/04/13 07:14:22;;;;;;;;;;;;;;;;;;5075241;28;19920;-63
2023/04/13 07:16:50;;;;;;;;;;;;;;;;;;5084232;28;21528;-63
2023/04/13 07:19:19;;;;;;;;;;;;;;;;;;5089893;28;19939;-62
2023/04/13 07:21:45;;;;;;;;;;;;;;;;;;5077230;28;19913;-63
2023/04/13 07:24:11;;;;;;;;;;;;;;;;;;5089153;28;19963;-62
2023/04/13 07:26:36;;;;;;;;;;;;;;;;;;5086340;28;20046;-62
2023/04/13 07:29:02;;;;;;;;;;;;;;;;;;5084720;28;19916;-63
2023/04/13 07:31:28;;;;;;;;;;;;;;;;;;5089269;28;19934;-63
2023/04/13 07:33:54;;;;;;;;;;;;;;;;;;5080207;28;20076;-62
2023/04/13 07:36:22;;;;;;;;;;;;;;;;;;5078358;28;20050;-63
2023/04/13 07:38:47;;;;;;;;;;;;;;;;;;5080401;28;20265;-63
2023/04/13 07:41:14;;;;;;;;;;;;;;;;;;5087070;28;19912;-63
2023/04/13 07:43:40;;;;;;;;;;;;;;;;;;5077589;28;20334;-63
2023/04/13 07:46:06;;;;;;;;;;;;;;;;;;5078436;28;20366;-62
2023/04/13 07:48:32;;;;;;;;;;;;;;;;;;5091229;28;19931;-62
2023/04/13 07:50:58;;;;;;;;;;;;;;;;;;5091157;28;19908;-63
2023/04/13 07:53:24;;;;;;;;;;;;;;;;;;5090117;28;19995;-63
2023/04/13 07:55:50;;;;;;;;;;;;;;;;;;5091472;28;19916;-63
2023/04/13 07:58:15;;;;;;;;;;;;;;;;;;5091547;28;19956;-63
2023/04/13 08:00:41;;;;;;;;;;;;;;;;;;5089253;28;19912;-63
2023/04/13 08:03:07;;;;;;;;;;;;;;;;;;5090983;28;19909;-62
2023/04/13 08:05:33;;;;;;;;;;;;;;;;;;5081611;28;19958;-62
2023/04/13 08:08:00;;;;;;;;;;;;;;;;;;5084192;28;19908;-63
2023/04/13 08:10:26;;;;;;;;;;;;;;;;;;5090088;28;19916;-63
2023/04/13 08:12:52;;;;;;;;;;;;;;;;;;5089010;28;19916;-63
2023/04/13 08:15:18;;;;;;;;;;;;;;;;;;5073932;28;19915;-63
2023/04/13 08:17:44;;;;;;;;;;;;;;;;;;5083569;28;19926;-63
2023/04/13 08:20:10;;;;;;;;;;;;;;;;;;5083363;28;19908;-63
2023/04/13 08:22:36;;;;;;;;;;;;;;;;;;5082354;28;19913;-63
2023/04/13 08:25:04;;;;;;;;;;;;;;;;;;5090540;28;20012;-63
2023/04/13 08:27:30;;;;;;;;;;;;;;;;;;5091251;28;19965;-63
2023/04/13 08:30:00;;;;;;;;;;;;;;;;;;5090125;28;19916;-63
2023/04/13 08:32:26;;;;;;;;;;;;;;;;;;5081629;28;20360;-63
2023/04/13 08:34:53;;;;;;;;;;;;;;;;;;5083379;28;20303;-63
2023/04/13 08:37:19;;;;;;;;;;;;;;;;;;5084061;28;19916;-63
2023/04/13 08:39:47;;;;;;;;;;;;;;;;;;5088849;28;19916;-63
2023/04/13 08:42:13;;;;;;;;;;;;;;;;;;5087295;28;19916;-63
2023/04/13 08:44:39;;;;;;;;;;;;;;;;;;5084812;28;20003;-63
2023/04/13 08:47:05;;;;;;;;;;;;;;;;;;5086491;28;19916;-63
2023/04/13 08:49:30;;;;;;;;;;;;;;;;;;5088987;28;19936;-63
2023/04/13 08:51:58;;;;;;;;;;;;;;;;;;5088425;28;19919;-62
2023/04/13 08:54:24;;;;;;;;;;;;;;;;;;5081793;28;19919;-63
2023/04/13 08:56:50;;;;;;;;;;;;;;;;;;5086959;28;19916;-63
2023/04/13 08:59:16;;;;;;;;;;;;;;;;;;5094162;28;19914;-63
2023/04/13 09:01:42;;;;;;;;;;;;;;;;;;5091071;28;19941;-63
2023/04/13 09:04:08;;;;;;;;;;;;;;;;;;5090402;28;19965;-63
2023/04/13 09:06:34;;;;;;;;;;;;;;;;;;5088812;28;19960;-63
2023/04/13 09:09:00;;;;;;;;;;;;;;;;;;5084343;28;19951;-63
2023/04/13 09:11:26;;;;;;;;;;;;;;;;;;5092288;28;20421;-63
2023/04/13 09:13:52;;;;;;;;;;;;;;;;;;5090672;28;19916;-63
2023/04/13 09:16:18;;;;;;;;;;;;;;;;;;5091782;28;19920;-63
2023/04/13 09:18:44;;;;;;;;;;;;;;;;;;5079994;28;19958;-63
2023/04/13 09:21:10;;;;;;;;;;;;;;;;;;5089670;28;19947;-64
2023/04/13 09:23:36;;;;;;;;;;;;;;;;;;5091877;28;19961;-63
2023/04/13 09:26:02;;;;;;;;;;;;;;;;;;5091387;28;20657;-63
2023/04/13 09:28:28;;;;;;;;;;;;;;;;;;5089741;28;19937;-63
2023/04/13 09:30:55;;;;;;;;;;;;;;;;;;5088541;28;19920;-63
2023/04/13 09:33:21;;;;;;;;;;;;;;;;;;5092755;28;19908;-63
2023/04/13 09:35:47;;;;;;;;;;;;;;;;;;5090465;28;19956;-63
2023/04/13 09:38:15;;;;;;;;;;;;;;;;;;5091752;28;19963;-64
2023/04/13 09:40:41;;;;;;;;;;;;;;;;;;5079014;28;19916;-63
2023/04/13 09:43:08;;;;;;;;;;;;;;;;;;5093523;28;19912;-65
2023/04/13 09:45:34;;;;;;;;;;;;;;;;;;5089680;28;20011;-64
2023/04/13 09:48:01;;;;;;;;;;;;;;;;;;5084851;28;20382;-63
2023/04/13 09:50:27;;;;;;;;;;;;;;;;;;5092869;28;19930;-63
2023/04/13 09:52:53;;;;;;;;;;;;;;;;;;5091842;28;19948;-64
2023/04/13 09:55:19;;;;;;;;;;;;;;;;;;5092249;28;20249;-64
2023/04/13 09:57:45;;;;;;;;;;;;;;;;;;5088364;28;19920;-64
2023/04/13 10:00:19;;;;;;;;;;;;;;;;;;5090670;28;19986;-64
2023/04/13 10:02:45;;;;;;;;;;;;;;;;;;5091244;28;20034;-63
2023/04/13 10:05:12;;;;;;;;;;;;;;;;;;5087381;28;19965;-63
2023/04/13 10:07:38;;;;;;;;;;;;;;;;;;5090345;28;19916;-64
2023/04/13 10:10:05;;;;;;;;;;;;;;;;;;5087861;28;19959;-64
2023/04/13 10:12:31;;;;;;;;;;;;;;;;;;5082405;28;20291;-64
2023/04/13 10:14:57;;;;;;;;;;;;;;;;;;5089796;28;19916;-63
2023/04/13 10:17:23;;;;;;;;;;;;;;;;;;5086579;28;19928;-63
2023/04/13 10:19:49;;;;;;;;;;;;;;;;;;5085892;28;20007;-64
2023/04/13 10:22:15;;;;;;;;;;;;;;;;;;5088039;28;19916;-63
2023/04/13 10:24:41;;;;;;;;;;;;;;;;;;5074467;28;20390;-64
2023/04/13 10:27:07;;;;;;;;;;;;;;;;;;5083738;28;19951;-63
2023/04/13 10:29:34;;;;;;;;;;;;;;;;;;5078205;28;19912;-63
2023/04/13 10:32:02;;;;;;;;;;;;;;;;;;5083870;28;19912;-63
2023/04/13 10:34:28;;;;;;;;;;;;;;;;;;5087258;28;20287;-64
2023/04/13 10:36:56;;;;;;;;;;;;;;;;;;5088000;28;19956;-64
2023/04/13 10:39:22;;;;;;;;;;;;;;;;;;5075150;28;19959;-64
2023/04/13 10:41:48;;;;;;;;;;;;;;;;;;5087347;28;19954;-64
2023/04/13 10:44:14;;;;;;;;;;;;;;;;;;5085984;28;19912;-64
2023/04/13 10:46:40;;;;;;;;;;;;;;;;;;5081708;28;19908;-64
2023/04/13 10:49:07;;;;;;;;;;;;;;;;;;5089231;28;19944;-64
2023/04/13 10:51:32;;;;;;;;;;;;;;;;;;5091010;28;19954;-63
2023/04/13 10:53:58;;;;;;;;;;;;;;;;;;5089520;28;20419;-64
2023/04/13 10:56:25;;;;;;;;;;;;;;;;;;5091946;28;19922;-64
2023/04/13 10:58:50;;;;;;;;;;;;;;;;;;5085476;28;19919;-63
2023/04/13 11:01:16;;;;;;;;;;;;;;;;;;5089512;28;19916;-64
2023/04/13 11:03:43;;;;;;;;;;;;;;;;;;5085320;28;19959;-64
2023/04/13 11:06:09;;;;;;;;;;;;;;;;;;5088374;28;19984;-63
2023/04/13 11:08:38;;;;;;;;;;;;;;;;;;5083165;28;20291;-64
2023/04/13 11:11:04;;;;;;;;;;;;;;;;;;5087504;28;19931;-64
2023/04/13 11:13:30;;;;;;;;;;;;;;;;;;5090729;28;20004;-64
2023/04/13 11:15:56;;;;;;;;;;;;;;;;;;5090329;28;19953;-64
2023/04/13 11:18:22;;;;;;;;;;;;;;;;;;5083155;28;20299;-64
2023/04/13 11:20:48;;;;;;;;;;;;;;;;;;5086767;28;19972;-64
2023/04/13 11:23:17;;;;;;;;;;;;;;;;;;5082694;28;19956;-64
2023/04/13 11:25:43;;;;;;;;;;;;;;;;;;5088274;28;19944;-64
2023/04/13 11:28:09;;;;;;;;;;;;;;;;;;5083319;28;19970;-64
2023/04/13 11:30:35;;;;;;;;;;;;;;;;;;5084329;28;20004;-64
2023/04/13 11:33:01;;;;;;;;;;;;;;;;;;5086305;28;19919;-64
2023/04/13 11:35:27;;;;;;;;;;;;;;;;;;5081552;28;19946;-64
2023/04/13 11:37:53;;;;;;;;;;;;;;;;;;5085243;28;19998;-64
2023/04/13 11:40:20;;;;;;;;;;;;;;;;;;5079819;28;19939;-64
2023/04/13 11:42:46;;;;;;;;;;;;;;;;;;5083243;28;19920;-64
2023/04/13 11:45:11;;;;;;;;;;;;;;;;;;5085777;28;19961;-64
2023/04/13 11:47:37;;;;;;;;;;;;;;;;;;5080622;28;20373;-63
2023/04/13 11:50:03;;;;;;;;;;;;;;;;;;5083093;28;19922;-64
2023/04/13 11:52:29;;;;;;;;;;;;;;;;;;5081129;28;20449;-64
2023/04/13 11:54:55;;;;;;;;;;;;;;;;;;5082502;28;19912;-64
2023/04/13 11:57:22;;;;;;;;;;;;;;;;;;5085512;28;20283;-64
2023/04/13 11:59:49;;;;;;;;;;;;;;;;;;5087731;28;19912;-64
2023/04/13 12:02:14;;;;;;;;;;;;;;;;;;5081080;28;20435;-63
2023/04/13 12:04:40;;;;;;;;;;;;;;;;;;5080670;28;19950;-63
2023/04/13 12:07:07;;;;;;;;;;;;;;;;;;5084665;28;20336;-64
2023/04/13 12:09:33;;;;;;;;;;;;;;;;;;5085907;28;20344;-64
2023/04/13 12:11:59;;;;;;;;;;;;;;;;;;5078753;28;19970;-64
2023/04/13 12:14:25;;;;;;;;;;;;;;;;;;5085913;28;19932;-64
2023/04/13 12:16:51;;;;;;;;;;;;;;;;;;5089514;28;19946;-64
2023/04/13 12:19:17;;;;;;;;;;;;;;;;;;5078445;28;19962;-64
2023/04/13 12:21:43;;;;;;;;;;;;;;;;;;5079729;28;19967;-64
2023/04/13 12:24:08;;;;;;;;;;;;;;;;;;5091808;28;19912;-64
2023/04/13 12:26:40;;;;;;;;;;;;;;;;;;5090624;28;19912;-64
2023/04/13 12:29:06;;;;;;;;;;;;;;;;;;5090401;28;19912;-64
2023/04/13 12:31:32;;;;;;;;;;;;;;;;;;5084435;28;19952;-64
2023/04/13 12:33:58;;;;;;;;;;;;;;;;;;5082886;28;19908;-64
2023/04/13 12:36:27;;;;;;;;;;;;;;;;;;5092095;28;19951;-63
2023/04/13 12:38:53;;;;;;;;;;;;;;;;;;5085950;28;20301;-64
2023/04/13 12:41:19;;;;;;;;;;;;;;;;;;5083602;28;19947;-64
2023/04/13 12:43:44;;;;;;;;;;;;;;;;;;5077143;28;19926;-64
2023/04/13 12:46:10;;;;;;;;;;;;;;;;;;5091791;28;20025;-64
2023/04/13 12:48:36;;;;;;;;;;;;;;;;;;5082187;28;19920;-64
2023/04/13 12:51:02;;;;;;;;;;;;;;;;;;5092170;28;19955;-64
2023/04/13 12:53:28;;;;;;;;;;;;;;;;;;5080489;28;19956;-64
2023/04/13 12:55:54;;;;;;;;;;;;;;;;;;5085602;28;20010;-64
2023/04/13 12:58:20;;;;;;;;;;;;;;;;;;5093763;28;19916;-64
2023/04/13 13:00:46;;;;;;;;;;;;;;;;;;5093620;28;19908;-64
2023/04/13 13:03:12;;;;;;;;;;;;;;;;;;5086946;28;20415;-64
2023/04/13 13:05:38;;;;;;;;;;;;;;;;;;5087229;28;19954;-64
2023/04/13 13:08:04;;;;;;;;;;;;;;;;;;5086009;28;20390;-64
2023/04/13 13:10:30;;;;;;;;;;;;;;;;;;5077121;28;19920;-64
2023/04/13 13:12:56;;;;;;;;;;;;;;;;;;5089807;28;19939;-63
2023/04/13 13:15:22;;;;;;;;;;;;;;;;;;5093602;28;19977;-64
2023/04/13 13:17:48;;;;;;;;;;;;;;;;;;5093334;28;20425;-63
2023/04/13 13:20:14;;;;;;;;;;;;;;;;;;5085310;28;19940;-63
2023/04/13 13:22:40;;;;;;;;;;;;;;;;;;5088890;28;19912;-64
2023/04/13 13:25:07;;;;;;;;;;;;;;;;;;5087931;28;19955;-63
2023/04/13 13:27:33;;;;;;;;;;;;;;;;;;5080530;28;19966;-63
2023/04/13 13:30:02;;;;;;;;;;;;;;;;;;5087781;28;19956;-64
2023/04/13 13:32:28;;;;;;;;;;;;;;;;;;5089882;28;19912;-64
2023/04/13 13:34:55;;;;;;;;;;;;;;;;;;5081833;28;19927;-62
2023/04/13 13:37:21;;;;;;;;;;;;;;;;;;5089227;28;20354;-64
2023/04/13 13:39:46;;;;;;;;;;;;;;;;;;5085121;28;19965;-64
2023/04/13 13:42:12;;;;;;;;;;;;;;;;;;5091698;28;19916;-66
2023/04/13 13:44:38;;;;;;;;;;;;;;;;;;5092889;28;20450;-63
2023/04/13 13:47:05;;;;;;;;;;;;;;;;;;5085736;28;19967;-63
2023/04/13 13:49:31;;;;;;;;;;;;;;;;;;5088018;28;19958;-65
2023/04/13 13:51:57;;;;;;;;;;;;;;;;;;5092174;28;19953;-63
2023/04/13 13:54:23;;;;;;;;;;;;;;;;;;5078490;28;19920;-64
2023/04/13 13:56:49;;;;;;;;;;;;;;;;;;5082156;28;19956;-65
2023/04/13 13:59:14;;;;;;;;;;;;;;;;;;5088314;28;20010;-62
2023/04/13 14:01:40;;;;;;;;;;;;;;;;;;5088368;28;20128;-62
2023/04/13 14:04:06;;;;;;;;;;;;;;;;;;5091017;28;20434;-62
2023/04/13 14:06:32;;;;;;;;;;;;;;;;;;5090226;28;20044;-64
2023/04/13 14:08:58;;;;;;;;;;;;;;;;;;5090512;28;19958;-62
2023/04/13 14:11:25;;;;;;;;;;;;;;;;;;5083415;28;19955;-62
2023/04/13 14:13:52;;;;;;;;;;;;;;;;;;5085243;28;19922;-62
2023/04/13 14:16:18;;;;;;;;;;;;;;;;;;5089194;28;19958;-65
2023/04/13 14:18:44;;;;;;;;;;;;;;;;;;5087582;28;19966;-65
2023/04/13 14:21:10;;;;;;;;;;;;;;;;;;5077051;28;19912;-65
2023/04/13 14:23:36;;;;;;;;;;;;;;;;;;5084914;28;19916;-62
2023/04/13 14:26:02;;;;;;;;;;;;;;;;;;5090387;28;19930;-62
2023/04/13 14:28:28;;;;;;;;;;;;;;;;;;5090375;28;20364;-62
2023/04/13 14:30:54;;;;;;;;;;;;;;;;;;5081943;28;19962;-63
2023/04/13 14:33:21;;;;;;;;;;;;;;;;;;5091264;28;20275;-64
2023/04/13 14:35:47;;;;;;;;;;;;;;;;;;5087017;28;19912;-64
2023/04/13 14:38:13;;;;;;;;;;;;;;;;;;5089010;28;19970;-64
2023/04/13 14:40:39;;;;;;;;;;;;;;;;;;5080954;28;20280;-64
2023/04/13 14:43:05;;;;;;;;;;;;;;;;;;5087660;28;20325;-64
2023/04/13 14:45:31;;;;;;;;;;;;;;;;;;5086910;28;19962;-64
2023/04/13 14:47:57;;;;;;;;;;;;;;;;;;5087620;28;20575;-64
2023/04/13 14:50:23;;;;;;;;;;;;;;;;;;5086981;28;19926;-64
2023/04/13 14:52:49;;;;;;;;;;;;;;;;;;5085666;28;19912;-64
2023/04/13 14:55:15;;;;;;;;;;;;;;;;;;5087238;28;20331;-63
2023/04/13 14:57:41;;;;;;;;;;;;;;;;;;5087516;28;20310;-63
2023/04/13 15:00:16;;;;;;;;;;;;;;;;;;5087952;28;19947;-66
2023/04/13 15:02:42;;;;;;;;;;;;;;;;;;5082433;28;19922;-59
2023/04/13 15:05:08;;;;;;;;;;;;;;;;;;5080460;28;20007;-60
2023/04/13 15:07:34;;;;;;;;;;;;;;;;;;5076496;28;20435;-59
2023/04/13 15:10:03;;;;;;;;;;;;;;;;;;5072142;28;19919;-60
2023/04/13 15:12:29;;;;;;;;;;;;;;;;;;5082702;28;21740;-60
2023/04/13 15:14:55;;;;;;;;;;;;;;;;;;5073663;28;19917;-60
2023/04/13 15:17:21;;;;;;;;;;;;;;;;;;5088505;28;20307;-60
2023/04/13 15:19:47;;;;;;;;;;;;;;;;;;5090616;28;19916;-60
2023/04/13 15:22:12;;;;;;;;;;;;;;;;;;5075433;28;19985;-59
2023/04/13 15:24:38;;;;;;;;;;;;;;;;;;5085103;28;20099;-59
2023/04/13 15:27:04;;;;;;;;;;;;;;;;;;5081439;28;19918;-59
2023/04/13 15:29:30;;;;;;;;;;;;;;;;;;5081471;28;20379;-59
2023/04/13 15:31:56;;;;;;;;;;;;;;;;;;5076712;28;19966;-59
2023/04/13 15:34:22;;;;;;;;;;;;;;;;;;5079291;28;19956;-59
2023/04/13 15:36:48;;;;;;;;;;;;;;;;;;5082461;28;19962;-59
2023/04/13 15:39:14;;;;;;;;;;;;;;;;;;5087258;28;20013;-60
2023/04/13 15:41:40;;;;;;;;;;;;;;;;;;5083829;28;19966;-60
2023/04/13 15:44:06;;;;;;;;;;;;;;;;;;5083093;28;20339;-59
2023/04/13 15:46:32;;;;;;;;;;;;;;;;;;5082860;28;19919;-60
2023/04/13 15:48:58;;;;;;;;;;;;;;;;;;5085019;28;19927;-58
2023/04/13 15:51:26;;;;;;;;;;;;;;;;;;5089285;28;19908;-59
2023/04/13 15:53:52;;;;;;;;;;;;;;;;;;5074755;28;19912;-60
2023/04/13 15:56:18;;;;;;;;;;;;;;;;;;5080371;28;19950;-57
2023/04/13 15:58:44;;;;;;;;;;;;;;;;;;5089471;28;19951;-60
2023/04/13 16:01:10;;;;;;;;;;;;;;;;;;5085696;28;19908;-60
2023/04/13 16:03:36;;;;;;;;;;;;;;;;;;5086524;28;19995;-57
2023/04/13 16:06:02;;;;;;;;;;;;;;;;;;5088706;28;19955;-60
2023/04/13 16:08:28;;;;;;;;;;;;;;;;;;5084778;28;19951;-59
2023/04/13 16:10:54;;;;;;;;;;;;;;;;;;5086106;28;19970;-58
2023/04/13 16:13:20;;;;;;;;;;;;;;;;;;5089883;28;19912;-58
2023/04/13 16:15:51;;;;;;;;;;;;;;;;;;5092074;28;19912;-60
2023/04/13 16:18:17;;;;;;;;;;;;;;;;;;5088296;28;19926;-60
2023/04/13 16:20:44;;;;;;;;;;;;;;;;;;5084518;28;19921;-59
2023/04/13 16:23:13;;;;;;;;;;;;;;;;;;5091181;28;19912;-59
2023/04/13 16:25:39;;;;;;;;;;;;;;;;;;5086366;28;19938;-60
2023/04/13 16:28:04;;;;;;;;;;;;;;;;;;5084493;28;20076;-60
2023/04/13 16:30:30;;;;;;;;;;;;;;;;;;5092824;28;19912;-60
2023/04/13 16:32:56;;;;;;;;;;;;;;;;;;5089049;28;19916;-60
2023/04/13 16:35:22;;;;;;;;;;;;;;;;;;5081228;28;19977;-60
2023/04/13 16:37:48;;;;;;;;;;;;;;;;;;5082067;28;19952;-60